createdAt,value
2023-02-05T00:00:42.430Z,18.23
2023-02-05T00:03:46.058Z,16.23
2023-02-05T00:06:50.766Z,11.50
2023-02-05T00:09:56.079Z,10.37
2023-02-05T00:13:10.107Z,10.73
2023-02-05T00:16:20.949Z,9.83
2023-02-05T00:19:25.712Z,9.10
2023-02-05T00:22:30.162Z,9.73
2023-02-05T00:25:40.270Z,8.80
2023-02-05T00:28:44.204Z,8.37
2023-02-05T00:31:54.023Z,7.67
2023-02-05T00:35:03.996Z,7.43
2023-02-05T00:38:14.267Z,6.77
2023-02-05T00:41:21.058Z,7.20
2023-02-05T00:44:26.105Z,6.97
2023-02-05T00:47:35.546Z,7.60
2023-02-05T00:50:43.958Z,7.60
2023-02-05T00:53:51.478Z,7.47
2023-02-05T00:57:16.214Z,7.70
2023-02-05T01:00:21.669Z,7.53
2023-02-05T01:03:35.316Z,6.83
2023-02-05T01:06:47.106Z,6.93
2023-02-05T01:09:55.224Z,7.23
2023-02-05T01:13:13.604Z,6.53
2023-02-05T01:16:22.482Z,6.67
2023-02-05T01:19:33.111Z,5.97
2023-02-05T01:22:41.367Z,6.23
2023-02-05T01:25:49.202Z,6.70
2023-02-05T01:28:59.954Z,6.10
2023-02-05T01:32:32.990Z,6.43
2023-02-05T01:35:58.318Z,6.53
2023-02-05T01:39:44.441Z,6.17
2023-02-05T01:47:19.128Z,6.33
2023-02-05T01:50:51.464Z,6.27
2023-02-05T01:57:51.900Z,5.97
2023-02-05T02:01:24.283Z,7.00
2023-02-05T02:04:55.359Z,6.30
2023-02-05T02:08:23.338Z,6.60
2023-02-05T02:15:15.870Z,7.37
2023-02-05T02:18:29.556Z,6.30
2023-02-05T02:22:09.722Z,6.50
2023-02-05T02:25:47.575Z,7.70
2023-02-05T02:28:56.117Z,6.60
2023-02-05T02:32:06.916Z,6.87
2023-02-05T02:35:17.319Z,6.30
2023-02-05T02:38:29.421Z,7.57
2023-02-05T02:41:42.183Z,6.43
2023-02-05T02:44:52.413Z,6.27
2023-02-05T02:48:00.179Z,6.43
2023-02-05T02:51:08.342Z,6.73
2023-02-05T02:54:17.469Z,6.80
2023-02-05T02:57:25.757Z,7.20
2023-02-05T03:00:35.114Z,6.93
2023-02-05T03:03:42.997Z,6.90
2023-02-05T03:06:53.933Z,7.07
2023-02-05T03:10:01.982Z,6.87
2023-02-05T03:13:05.364Z,7.10
2023-02-05T03:16:11.505Z,7.10
2023-02-05T03:19:14.703Z,7.53
2023-02-05T03:22:17.758Z,7.57
2023-02-05T03:25:23.380Z,9.00
2023-02-05T03:28:29.599Z,8.67
2023-02-05T03:31:43.962Z,8.00
2023-02-05T03:35:01.997Z,8.67
2023-02-05T03:38:23.488Z,7.93
2023-02-05T03:41:54.402Z,9.47
2023-02-05T03:45:36.090Z,9.33
2023-02-05T03:48:56.403Z,8.47
2023-02-05T03:52:05.169Z,8.33
2023-02-05T03:55:14.436Z,8.40
2023-02-05T03:58:25.208Z,7.93
2023-02-05T04:01:30.015Z,8.27
2023-02-05T04:04:34.592Z,8.47
2023-02-05T04:07:38.687Z,8.43
2023-02-05T04:10:42.016Z,8.07
2023-02-05T04:13:45.412Z,8.33
2023-02-05T04:16:48.880Z,8.80
2023-02-05T04:19:53.514Z,8.50
2023-02-05T04:22:59.805Z,8.47
2023-02-05T04:26:04.609Z,8.23
2023-02-05T04:29:13.063Z,8.50
2023-02-05T04:32:21.193Z,8.40
2023-02-05T04:35:30.689Z,8.53
2023-02-05T04:38:34.721Z,7.60
2023-02-05T04:41:37.761Z,9.33
2023-02-05T04:44:40.793Z,8.93
2023-02-05T04:47:43.836Z,8.03
2023-02-05T04:50:48.440Z,8.10
2023-02-05T04:53:51.522Z,9.00
2023-02-05T04:56:58.480Z,8.80
2023-02-05T05:00:01.721Z,8.13
2023-02-05T05:03:04.988Z,9.53
2023-02-05T05:06:10.802Z,8.60
2023-02-05T05:09:13.910Z,8.00
2023-02-05T05:12:16.884Z,7.67
2023-02-05T05:15:20.221Z,9.37
2023-02-05T05:18:23.949Z,8.60
2023-02-05T05:21:28.352Z,8.80
2023-02-05T05:24:31.633Z,9.00
2023-02-05T05:27:34.697Z,8.70
2023-02-05T05:30:39.854Z,8.77
2023-02-05T05:33:43.065Z,9.40
2023-02-05T05:36:47.685Z,8.80
2023-02-05T05:40:08.086Z,8.67
2023-02-05T05:43:32.042Z,8.67
2023-02-05T05:46:36.068Z,8.23
2023-02-05T05:49:39.322Z,8.70
2023-02-05T05:52:43.758Z,8.13
2023-02-05T05:55:46.914Z,8.30
2023-02-05T05:58:50.864Z,7.97
2023-02-05T06:01:54.090Z,8.40
2023-02-05T06:04:57.086Z,9.07
2023-02-05T06:08:01.792Z,8.10
2023-02-05T06:11:05.266Z,8.00
2023-02-05T06:14:08.341Z,7.97
2023-02-05T06:17:11.372Z,7.50
2023-02-05T06:20:15.563Z,7.43
2023-02-05T06:23:19.950Z,8.60
2023-02-05T06:26:23.456Z,8.00
2023-02-05T06:29:26.613Z,9.03
2023-02-05T06:32:29.823Z,8.70
2023-02-05T06:35:33.706Z,9.10
2023-02-05T06:38:41.436Z,8.70
2023-02-05T06:41:44.405Z,8.70
2023-02-05T06:44:49.671Z,8.37
2023-02-05T06:47:56.156Z,8.40
2023-02-05T06:50:59.201Z,7.87
2023-02-05T06:54:03.603Z,8.10
2023-02-05T06:57:06.612Z,8.73
2023-02-05T07:00:12.080Z,8.60
2023-02-05T07:03:15.114Z,8.33
2023-02-05T07:06:18.620Z,7.80
2023-02-05T07:09:22.973Z,8.53
2023-02-05T07:12:26.531Z,8.17
2023-02-05T07:15:29.725Z,7.33
2023-02-05T07:18:33.605Z,8.47
2023-02-05T07:21:37.006Z,8.90
2023-02-05T07:24:41.372Z,8.33
2023-02-05T07:27:44.448Z,9.80
2023-02-05T07:30:49.725Z,8.67
2023-02-05T07:33:52.889Z,8.60
2023-02-05T07:36:56.196Z,8.33
2023-02-05T07:40:00.655Z,9.10
2023-02-05T07:43:05.403Z,7.93
2023-02-05T07:46:11.606Z,9.67
2023-02-05T07:49:14.932Z,10.33
2023-02-05T07:52:18.485Z,10.07
2023-02-05T07:55:22.820Z,10.07
2023-02-05T07:58:26.594Z,10.80
2023-02-05T08:01:29.677Z,10.07
2023-02-05T08:04:33.460Z,10.73
2023-02-05T08:07:37.503Z,8.67
2023-02-05T08:10:41.818Z,9.70
2023-02-05T08:13:45.779Z,10.40
2023-02-05T08:16:48.825Z,9.83
2023-02-05T08:19:52.502Z,10.27
2023-02-05T08:22:55.542Z,9.50
2023-02-05T08:26:01.087Z,8.90
2023-02-05T08:29:04.698Z,9.30
2023-02-05T08:32:07.911Z,9.50
2023-02-05T08:35:19.730Z,9.37
2023-02-05T08:38:23.904Z,9.10
2023-02-05T08:41:28.344Z,8.87
2023-02-05T08:44:31.791Z,8.43
2023-02-05T08:47:34.828Z,8.43
2023-02-05T08:50:37.916Z,8.57
2023-02-05T08:53:41.985Z,8.30
2023-02-05T08:56:50.350Z,8.07
2023-02-05T08:59:53.465Z,7.63
2023-02-05T09:02:56.552Z,8.53
2023-02-05T09:06:00.520Z,8.10
2023-02-05T09:09:06.611Z,7.67
2023-02-05T09:12:11.576Z,7.43
2023-02-05T09:15:14.576Z,8.23
2023-02-05T09:18:18.025Z,7.67
2023-02-05T09:21:21.471Z,8.13
2023-02-05T09:24:24.679Z,7.63
2023-02-05T09:27:30.462Z,9.03
2023-02-05T09:30:33.753Z,8.67
2023-02-05T09:33:37.540Z,8.17
2023-02-05T09:36:41.470Z,7.43
2023-02-05T09:40:19.078Z,7.40
2023-02-05T09:43:27.772Z,7.83
2023-02-05T09:46:44.874Z,7.30
2023-02-05T09:49:55.938Z,7.10
2023-02-05T09:53:05.755Z,7.23
2023-02-05T09:56:10.360Z,7.40
2023-02-05T09:59:20.621Z,8.00
2023-02-05T10:02:31.057Z,10.00
2023-02-05T10:05:42.663Z,8.00
2023-02-05T10:09:04.229Z,8.67
2023-02-05T10:12:39.011Z,8.83
2023-02-05T10:16:23.406Z,7.77
2023-02-05T10:20:14.036Z,7.80
2023-02-05T10:23:22.772Z,6.67
2023-02-05T10:26:34.901Z,7.57
2023-02-05T10:29:49.557Z,7.37
2023-02-05T10:33:05.553Z,7.13
2023-02-05T10:41:27.870Z,6.07
2023-02-05T10:45:07.591Z,7.00
2023-02-05T10:48:55.361Z,7.07
2023-02-05T10:51:58.567Z,5.77
2023-02-05T10:55:05.140Z,6.60
2023-02-05T10:58:45.060Z,6.43
2023-02-05T11:01:48.772Z,6.57
2023-02-05T11:04:57.158Z,6.03
2023-02-05T11:08:06.280Z,6.03
2023-02-05T11:11:31.357Z,5.97
2023-02-05T11:14:40.361Z,5.77
2023-02-05T11:17:43.527Z,5.53
2023-02-05T11:20:58.847Z,5.00
2023-02-05T11:24:01.937Z,5.60
2023-02-05T11:27:32.270Z,4.70
2023-02-05T11:30:50.796Z,5.13
2023-02-05T11:34:14.630Z,5.50
2023-02-05T11:37:20.229Z,5.00
2023-02-05T11:40:28.310Z,5.60
2023-02-05T11:43:33.941Z,5.77
2023-02-05T11:46:45.709Z,5.40
2023-02-05T11:49:55.918Z,5.70
2023-02-05T11:53:18.853Z,5.37
2023-02-05T11:56:25.523Z,5.47
2023-02-05T11:59:29.380Z,4.83
2023-02-05T12:02:41.434Z,5.13
2023-02-05T12:05:55.385Z,5.63
2023-02-05T12:09:00.091Z,5.60
2023-02-05T12:12:46.879Z,5.63
2023-02-05T12:16:20.352Z,6.40
2023-02-05T12:19:36.509Z,6.10
2023-02-05T12:23:07.315Z,5.77
2023-02-05T12:26:33.307Z,5.17
2023-02-05T12:30:05.382Z,5.80
2023-02-05T12:33:53.659Z,5.67
2023-02-05T12:37:27.140Z,4.90
2023-02-05T12:41:06.089Z,5.47
2023-02-05T12:44:35.351Z,4.80
2023-02-05T12:48:29.131Z,5.03
2023-02-05T12:51:55.252Z,4.80
2023-02-05T12:55:27.929Z,5.27
2023-02-05T13:03:56.796Z,5.07
2023-02-05T13:07:20.969Z,5.37
2023-02-05T13:10:30.500Z,4.60
2023-02-05T13:14:05.645Z,4.77
2023-02-05T13:17:31.640Z,5.00
2023-02-05T13:21:01.657Z,5.43
2023-02-05T13:25:10.556Z,5.20
2023-02-05T13:33:14.567Z,4.63
2023-02-05T13:41:44.408Z,4.77
2023-02-05T14:00:54.164Z,4.87
2023-02-05T14:04:33.849Z,5.03
2023-02-05T14:07:50.161Z,4.13
2023-02-05T14:11:05.324Z,4.50
2023-02-05T14:14:36.248Z,4.90
2023-02-05T14:18:25.342Z,4.80
2023-02-05T14:22:38.458Z,3.93
2023-02-05T14:31:49.300Z,4.07
2023-02-05T14:35:02.131Z,4.30
2023-02-05T14:38:22.005Z,4.10
2023-02-05T14:41:28.645Z,4.00
2023-02-05T14:44:34.588Z,4.40
2023-02-05T14:47:43.126Z,3.87
2023-02-05T14:50:48.072Z,4.67
2023-02-05T14:53:58.766Z,20.10
2023-02-05T14:57:22.655Z,7.90
2023-02-05T15:00:35.110Z,5.47
2023-02-05T15:03:41.132Z,4.27
2023-02-05T15:06:46.701Z,4.97
2023-02-05T15:10:01.857Z,5.27
2023-02-05T15:13:12.136Z,4.93
2023-02-05T15:16:22.966Z,4.70
2023-02-05T15:19:26.258Z,5.13
2023-02-05T15:22:37.212Z,4.97
2023-02-05T15:25:44.539Z,4.70
2023-02-05T15:29:04.127Z,4.90
2023-02-05T15:32:21.151Z,4.10
2023-02-05T15:35:28.400Z,5.67
2023-02-05T15:38:39.867Z,6.27
2023-02-05T15:41:46.439Z,6.13
2023-02-05T15:44:53.824Z,6.60
2023-02-05T15:48:02.074Z,7.03
2023-02-05T15:51:15.612Z,7.07
2023-02-05T15:54:22.115Z,6.47
2023-02-05T15:57:32.296Z,9.13
2023-02-05T16:00:39.613Z,6.53
2023-02-05T16:03:43.652Z,7.30
2023-02-05T16:06:50.819Z,6.43
2023-02-05T16:09:58.463Z,6.63
2023-02-05T16:13:04.120Z,7.37
2023-02-05T16:16:11.832Z,6.57
2023-02-05T16:19:22.024Z,7.03
2023-02-05T16:22:33.187Z,7.43
2023-02-05T16:25:44.838Z,6.50
2023-02-05T16:28:52.517Z,6.80
2023-02-05T16:32:04.828Z,6.33
2023-02-05T16:35:27.170Z,6.80
2023-02-05T16:38:39.262Z,6.47
2023-02-05T16:42:02.583Z,6.37
2023-02-05T16:45:22.760Z,6.87
2023-02-05T16:48:31.912Z,6.73
2023-02-05T16:51:55.198Z,6.50
2023-02-05T16:54:59.251Z,7.17
2023-02-05T16:58:06.969Z,5.90
2023-02-05T17:01:10.644Z,6.63
2023-02-05T17:04:26.852Z,5.97
2023-02-05T17:07:31.130Z,6.23
2023-02-05T17:10:51.914Z,6.37
2023-02-05T17:14:14.642Z,6.40
2023-02-05T17:17:19.875Z,7.03
2023-02-05T17:20:26.178Z,7.00
2023-02-05T17:23:30.071Z,7.17
2023-02-05T17:26:37.391Z,7.40
2023-02-05T17:29:42.298Z,7.23
2023-02-05T17:32:46.883Z,7.23
2023-02-05T17:35:50.670Z,7.73
2023-02-05T17:38:54.754Z,7.00
2023-02-05T17:42:08.434Z,7.40
2023-02-05T17:45:19.463Z,7.27
2023-02-05T17:48:22.892Z,7.83
2023-02-05T17:51:26.938Z,7.87
2023-02-05T17:54:31.017Z,9.37
2023-02-05T17:57:35.103Z,9.53
2023-02-05T18:00:39.784Z,9.80
2023-02-05T18:03:43.469Z,9.67
2023-02-05T18:06:50.644Z,9.03
2023-02-05T18:09:55.798Z,9.67
2023-02-05T18:13:00.103Z,11.00
2023-02-05T18:16:05.644Z,10.83
2023-02-05T18:19:09.552Z,10.23
2023-02-05T18:22:18.769Z,11.93
2023-02-05T18:25:23.057Z,12.27
2023-02-05T18:28:28.128Z,18.00
2023-02-05T18:31:35.908Z,19.43
2023-02-05T18:34:40.154Z,20.67
2023-02-05T18:37:44.364Z,22.13
2023-02-05T18:40:50.775Z,20.00
2023-02-05T18:44:04.346Z,19.23
2023-02-05T18:47:10.234Z,19.50
2023-02-05T18:50:13.724Z,18.20
2023-02-05T18:53:17.610Z,17.70
2023-02-05T18:56:26.265Z,15.83
2023-02-05T18:59:29.622Z,14.53
2023-02-05T19:02:35.295Z,14.43
2023-02-05T19:05:39.022Z,16.33
2023-02-05T19:08:45.841Z,14.03
2023-02-05T19:11:52.716Z,14.23
2023-02-05T19:15:16.794Z,12.97
2023-02-05T19:18:46.353Z,13.57
2023-02-05T19:26:17.934Z,12.80
2023-02-05T19:29:24.606Z,15.23
2023-02-05T19:32:44.133Z,13.87
2023-02-05T19:35:59.234Z,14.23
2023-02-05T19:39:17.939Z,13.63
2023-02-05T19:42:23.352Z,15.80
2023-02-05T19:45:29.950Z,15.53
2023-02-05T19:48:33.767Z,18.40
2023-02-05T19:51:38.694Z,20.93
2023-02-05T19:54:42.024Z,25.43
2023-02-05T19:57:45.587Z,24.20
2023-02-05T20:00:49.072Z,21.47
2023-02-05T20:03:54.736Z,19.10
2023-02-05T20:07:01.722Z,17.17
2023-02-05T20:10:06.572Z,16.07
2023-02-05T20:13:11.309Z,16.47
2023-02-05T20:16:27.163Z,16.70
2023-02-05T20:19:35.032Z,16.53
2023-02-05T20:22:44.006Z,15.47
2023-02-05T20:26:00.478Z,17.73
2023-02-05T20:29:27.691Z,18.30
2023-02-05T20:32:42.452Z,17.43
2023-02-05T20:35:51.203Z,17.73
2023-02-05T20:39:22.251Z,19.27
2023-02-05T20:42:35.143Z,17.77
2023-02-05T20:45:49.946Z,17.90
2023-02-05T20:49:03.324Z,18.67
2023-02-05T20:52:16.112Z,19.23
2023-02-05T20:57:02.240Z,18.90
2023-02-05T21:00:24.537Z,19.73
2023-02-05T21:03:38.359Z,19.83
2023-02-05T21:06:50.222Z,20.63
2023-02-05T21:09:55.821Z,18.67
2023-02-05T21:13:22.544Z,17.87
2023-02-05T21:16:43.211Z,18.17
2023-02-05T21:19:59.738Z,18.37
2023-02-05T21:23:18.978Z,16.80
2023-02-05T21:26:27.745Z,18.43
2023-02-05T21:29:40.209Z,18.63
2023-02-05T21:32:44.831Z,17.90
2023-02-05T21:35:48.049Z,18.30
2023-02-05T21:38:51.150Z,20.50
2023-02-05T21:41:54.690Z,19.27
2023-02-05T21:44:59.353Z,18.70
2023-02-05T21:48:04.942Z,19.30
2023-02-05T21:51:10.205Z,18.40
2023-02-05T21:54:13.515Z,17.50
2023-02-05T21:57:17.018Z,17.30
2023-02-05T22:00:21.716Z,17.83
2023-02-05T22:03:24.877Z,16.17
2023-02-05T22:06:32.392Z,16.87
2023-02-05T22:09:35.763Z,18.97
2023-02-05T22:12:39.091Z,20.07
2023-02-05T22:15:43.636Z,18.00
2023-02-05T22:18:47.379Z,20.77
2023-02-05T22:21:50.669Z,20.63
2023-02-05T22:24:53.944Z,20.80
2023-02-05T22:27:57.493Z,22.50
2023-02-05T22:31:04.623Z,19.23
2023-02-05T22:34:08.338Z,20.77
2023-02-05T22:37:11.583Z,19.70
2023-02-05T22:40:15.334Z,19.47
2023-02-05T22:43:19.200Z,21.13
2023-02-05T22:46:27.009Z,19.23
2023-02-05T22:49:30.518Z,19.50
2023-02-05T22:52:36.866Z,20.07
2023-02-05T22:55:41.488Z,18.83
2023-02-05T22:58:47.495Z,19.03
2023-02-05T23:01:52.207Z,20.00
2023-02-05T23:04:55.948Z,19.23
2023-02-05T23:07:59.551Z,19.27
2023-02-05T23:11:06.309Z,20.57
2023-02-05T23:14:10.862Z,20.07
2023-02-05T23:17:15.717Z,20.10
2023-02-05T23:20:19.660Z,20.73
2023-02-05T23:23:23.169Z,21.43
2023-02-05T23:26:30.094Z,23.37
2023-02-05T23:29:33.696Z,26.97
2023-02-05T23:32:38.993Z,26.30
2023-02-05T23:35:42.927Z,28.43
2023-02-05T23:38:46.581Z,28.67
2023-02-05T23:41:49.928Z,29.20
2023-02-05T23:44:53.646Z,27.57
2023-02-05T23:47:59.247Z,30.77
2023-02-05T23:51:03.046Z,30.17
2023-02-05T23:54:07.475Z,29.73
2023-02-05T23:57:10.898Z,28.17
